Time;durP1;ratioP1;P1;durP2;ratioP2;P2;SDS_P1;SDS_P2;PMS_P1;PMS_P2;Temp;Humidity;BMP_temperature;BMP_pressure;BME280_temperature;BME280_humidity;BME280_pressure;Samples;Min_cycle;Max_cycle;Signal;HPM_P1;HPM_P2
2021/11/01 00:00:17;;;;;;;49.57;31.67;;;;;;;7.09;64.22;95279.06;5023336;28;20450;-66
2021/11/01 00:02:46;;;;;;;47.93;31.60;;;;;;;6.82;64.80;95272.66;5010443;28;20499;-67
2021/11/01 00:05:14;;;;;;;49.67;30.83;;;;;;;6.65;65.79;95270.91;5020901;28;20530;-70
2021/11/01 00:07:41;;;;;;;46.50;30.47;;;;;;;6.67;65.10;95251.44;5003896;28;20552;-71
2021/11/01 00:10:10;;;;;;;48.80;31.90;;;;;;;7.19;64.45;95276.69;5004945;28;20447;-70
2021/11/01 00:12:38;;;;;;;47.17;30.23;;;;;;;7.05;63.81;95266.69;5015781;28;20539;-70
2021/11/01 00:15:06;;;;;;;44.63;30.07;;;;;;;7.08;64.00;95267.03;5016539;28;20797;-71
2021/11/01 00:17:33;;;;;;;49.13;32.00;;;;;;;6.97;64.51;95265.22;5016180;28;20491;-67
2021/11/01 00:20:00;;;;;;;51.43;32.57;;;;;;;6.35;66.78;95273.50;5019008;28;20447;-72
2021/11/01 00:22:27;;;;;;;46.83;32.33;;;;;;;6.32;66.94;95279.16;5018474;28;20448;-69
2021/11/01 00:24:54;;;;;;;47.53;31.27;;;;;;;6.40;66.56;95271.03;5017194;28;20436;-67
2021/11/01 00:27:21;;;;;;;48.27;30.83;;;;;;;6.53;65.43;95268.25;5007962;28;20295;-69
2021/11/01 00:29:48;;;;;;;50.10;31.63;;;;;;;6.35;66.03;95273.50;5003013;28;20558;-67
2021/11/01 00:32:15;;;;;;;47.97;30.63;;;;;;;6.29;66.27;95263.97;5019855;28;20436;-70
2021/11/01 00:34:43;;;;;;;45.13;31.13;;;;;;;6.22;66.27;95267.69;5013957;28;20562;-69
2021/11/01 00:37:11;;;;;;;47.83;31.20;;;;;;;5.80;67.83;95274.53;5019019;28;20444;-70
2021/11/01 00:39:38;;;;;;;51.28;30.33;;;;;;;6.09;66.93;95253.03;5017091;28;20801;-67
2021/11/01 00:42:06;;;;;;;48.20;31.43;;;;;;;5.98;67.07;95251.94;5010972;28;20221;-67
2021/11/01 00:44:33;;;;;;;45.23;30.20;;;;;;;5.72;67.62;95256.59;5014777;28;20448;-73
2021/11/01 00:47:00;;;;;;;47.90;31.07;;;;;;;5.63;68.26;95258.69;5029102;28;20443;-74
2021/11/01 00:49:28;;;;;;;50.22;30.27;;;;;;;5.84;67.41;95254.88;5019038;28;20449;-70
2021/11/01 00:51:58;;;;;;;51.55;30.45;;;;;;;5.93;66.86;95243.22;5011652;28;20727;-71
2021/11/01 00:54:25;;;;;;;47.90;30.27;;;;;;;5.92;67.04;95239.00;5020373;28;20694;-67
2021/11/01 00:56:52;;;;;;;51.28;30.42;;;;;;;5.99;66.78;95247.53;5023578;28;20190;-73
2021/11/01 00:59:20;;;;;;;46.33;29.95;;;;;;;6.11;66.12;95240.59;5028279;28;20224;-73
2021/11/01 01:01:48;;;;;;;46.97;30.63;;;;;;;6.37;65.57;95239.47;5019870;28;20571;-72
2021/11/01 01:04:18;;;;;;;48.17;30.35;;;;;;;6.36;65.16;95236.06;5022503;28;20970;-69
2021/11/01 01:06:45;;;;;;;45.97;28.98;;;;;;;6.22;65.57;95237.25;5018059;28;20278;-68
2021/11/01 01:09:12;;;;;;;49.97;30.00;;;;;;;5.51;67.21;95198.03;5004973;28;20193;-65
2021/11/01 01:11:40;;;;;;;49.13;29.83;;;;;;;5.94;66.60;95226.59;5017731;28;20753;-68
2021/11/01 01:14:07;;;;;;;42.15;29.30;;;;;;;6.01;66.06;95216.88;5017104;28;20446;-71
2021/11/01 01:16:42;;;;;;;50.30;30.03;;;;;;;6.16;66.18;95222.50;5016883;28;20202;-71
2021/11/01 01:19:17;;;;;;;51.97;29.55;;;;;;;6.27;65.16;95219.16;5028540;28;20478;-68
2021/11/01 01:24:30;;;;;;;41.80;28.83;;;;;;;6.49;64.82;95212.44;5015051;28;20467;-69
2021/11/01 01:26:58;;;;;;;47.40;30.83;;;;;;;6.45;64.92;95200.91;5029894;28;20193;-72
2021/11/01 01:29:25;;;;;;;47.80;29.80;;;;;;;6.22;64.99;95210.44;5032755;28;20849;-67
2021/11/01 01:31:52;;;;;;;48.37;30.20;;;;;;;6.39;64.78;95211.38;5032017;28;20527;-65
2021/11/01 01:34:20;;;;;;;44.40;29.43;;;;;;;6.21;64.88;95204.41;5025785;28;21441;-69
2021/11/01 01:36:47;;;;;;;45.27;30.93;;;;;;;5.82;66.17;95204.91;5016216;28;20811;-70
2021/11/01 01:39:14;;;;;;;44.43;29.07;;;;;;;5.98;65.75;95188.72;5024230;28;21026;-72
2021/11/01 01:41:45;;;;;;;47.50;29.87;;;;;;;5.96;65.66;95195.94;5021884;28;20455;-68
2021/11/01 01:44:14;;;;;;;44.58;29.02;;;;;;;6.09;65.45;95193.19;5015566;28;20444;-64
2021/11/01 01:46:41;;;;;;;48.75;30.00;;;;;;;5.67;66.49;95189.69;5024038;28;20190;-69
2021/11/01 01:49:08;;;;;;;48.17;29.90;;;;;;;5.72;66.22;95192.41;5025937;28;20197;-70
2021/11/01 01:51:35;;;;;;;43.78;29.13;;;;;;;5.62;66.40;95192.09;5011558;28;20288;-70
2021/11/01 01:54:03;;;;;;;45.20;30.10;;;;;;;5.98;65.40;95183.53;5018415;28;20193;-66
2021/11/01 01:56:31;;;;;;;42.97;29.17;;;;;;;6.04;64.92;95185.22;5020891;28;20932;-67
2021/11/01 01:59:04;;;;;;;43.23;28.40;;;;;;;6.02;64.54;95176.88;5020141;28;20479;-67
2021/11/01 02:01:33;;;;;;;42.42;27.75;;;;;;;5.93;64.10;95175.59;5018971;28;21373;-71
2021/11/01 02:04:02;;;;;;;43.83;28.27;;;;;;;5.91;64.19;95182.81;5021296;28;20206;-65
2021/11/01 02:06:55;;;;;;;41.90;27.85;;;;;;;5.75;64.49;95180.75;5018543;28;20232;-66
2021/11/01 02:09:30;;;;;;;43.37;28.63;;;;;;;5.93;64.34;95180.78;5022478;28;20276;-70
2021/11/01 02:12:02;;;;;;;42.53;28.45;;;;;;;5.90;64.39;95181.22;5020577;28;20458;-71
2021/11/01 02:14:44;;;;;;;45.70;28.58;;;;;;;5.94;63.75;95171.97;5017741;28;20216;-72
2021/11/01 02:17:16;;;;;;;40.67;27.73;;;;;;;5.85;64.14;95178.47;5020555;28;20206;-70
2021/11/01 02:19:48;;;;;;;46.55;31.73;;;;;;;5.82;64.04;95165.91;5021900;28;21060;-70
2021/11/01 02:22:34;;;;;;;50.50;34.08;;;;;;;5.96;64.04;95175.16;5026555;28;20200;-67
2021/11/01 02:25:11;;;;;;;55.90;38.07;;;;;;;5.98;64.36;95173.91;5010216;28;20288;-67
2021/11/01 02:27:44;;;;;;;58.53;39.20;;;;;;;5.75;64.21;95154.75;5018797;28;20451;-68
2021/11/01 02:30:12;;;;;;;65.57;42.30;;;;;;;5.89;64.30;95171.84;5014548;28;20250;-69
2021/11/01 02:32:42;;;;;;;65.57;41.67;;;;;;;5.92;64.09;95176.59;5018615;28;20206;-69
2021/11/01 02:35:11;;;;;;;71.97;45.40;;;;;;;5.89;64.47;95182.25;5023069;28;20443;-70
2021/11/01 02:37:40;;;;;;;81.28;49.63;;;;;;;5.77;64.53;95181.34;5029919;28;20440;-68
2021/11/01 02:40:09;;;;;;;99.32;56.75;;;;;;;5.92;64.63;95184.41;5010828;28;20198;-71
2021/11/01 02:42:37;;;;;;;83.00;50.92;;;;;;;5.51;65.97;95179.84;5015274;28;20212;-69
2021/11/01 02:45:08;;;;;;;77.35;47.72;;;;;;;5.61;65.73;95174.13;4999302;28;21009;-71
2021/11/01 02:47:35;;;;;;;78.15;47.00;;;;;;;5.40;65.53;95177.19;5020264;28;20288;-75
2021/11/01 02:50:06;;;;;;;74.18;45.03;;;;;;;5.45;65.49;95178.13;5030054;28;20193;-70
2021/11/01 02:52:33;;;;;;;82.88;49.33;;;;;;;5.65;64.98;95180.50;5018648;28;20608;-69
2021/11/01 02:55:02;;;;;;;74.13;45.40;;;;;;;5.40;64.67;95179.78;5030631;28;20193;-75
2021/11/01 02:57:29;;;;;;;71.10;44.20;;;;;;;5.22;64.98;95140.81;5024160;28;20745;-68
2021/11/01 02:59:56;;;;;;;151.50;102.38;;;;;;;5.49;64.94;95171.47;5011302;28;20220;-68
2021/11/01 03:02:23;;;;;;;115.82;75.82;;;;;;;5.70;64.33;95180.63;5035480;28;20270;-68
2021/11/01 03:04:51;;;;;;;52.15;32.78;;;;;;;5.16;65.32;95174.41;5028736;28;20211;-72
2021/11/01 03:07:19;;;;;;;54.38;34.47;;;;;;;4.67;67.04;95166.66;5025901;28;20233;-64
2021/11/01 03:09:47;;;;;;;97.38;55.38;;;;;;;4.28;69.25;95177.34;5023646;28;20205;-70
2021/11/01 03:12:17;;;;;;;59.25;35.85;;;;;;;4.51;68.64;95143.03;5018738;28;20201;-68
2021/11/01 03:14:51;;;;;;;44.75;28.70;;;;;;;4.38;68.86;95169.88;5018354;28;20282;-73
2021/11/01 03:17:24;;;;;;;42.58;26.95;;;;;;;4.53;68.55;95170.38;5028946;28;20288;-70
2021/11/01 03:20:14;;;;;;;43.22;27.30;;;;;;;4.55;68.56;95176.16;5025003;28;20242;-71
2021/11/01 03:22:55;;;;;;;46.38;27.60;;;;;;;4.56;68.36;95162.16;5024319;28;20205;-73
2021/11/01 03:25:38;;;;;;;43.00;26.85;;;;;;;4.36;69.47;95169.28;5019542;28;20667;-71
2021/11/01 03:28:07;;;;;;;45.38;28.38;;;;;;;4.41;68.85;95166.88;5012914;28;20197;-69
2021/11/01 03:30:35;;;;;;;44.10;28.95;;;;;;;4.36;68.72;95166.69;5020928;28;20284;-70
2021/11/01 03:33:03;;;;;;;44.45;27.77;;;;;;;4.66;67.89;95175.47;5028918;28;20281;-71
2021/11/01 03:35:33;;;;;;;41.45;27.42;;;;;;;4.65;67.96;95166.06;5017952;28;20189;-66
2021/11/01 03:38:02;;;;;;;47.03;27.20;;;;;;;4.61;68.06;95167.53;5023484;28;20224;-71
2021/11/01 03:40:33;;;;;;;43.95;26.48;;;;;;;4.67;67.49;95168.47;5021106;28;20542;-71
2021/11/01 03:43:03;;;;;;;54.90;36.58;;;;;;;4.95;67.00;95161.84;5018679;28;20574;-72
2021/11/01 03:45:33;;;;;;;44.88;26.77;;;;;;;4.95;66.97;95161.03;5024358;28;20220;-68
2021/11/01 03:48:03;;;;;;;40.80;25.90;;;;;;;4.89;66.83;95152.28;5030099;28;20201;-71
2021/11/01 03:50:43;;;;;;;43.60;27.70;;;;;;;5.15;66.69;95161.63;5023029;28;20204;-65
2021/11/01 03:53:11;;;;;;;43.67;26.83;;;;;;;5.08;66.80;95156.53;5039538;28;20245;-68
2021/11/01 03:55:39;;;;;;;44.58;28.45;;;;;;;5.03;67.07;95166.75;5022912;28;20213;-68
2021/11/01 03:58:07;;;;;;;43.95;27.27;;;;;;;4.91;66.92;95158.06;5031740;28;20651;-71
2021/11/01 04:00:36;;;;;;;45.72;27.65;;;;;;;5.09;66.52;95142.50;5029913;28;20223;-69
2021/11/01 04:03:04;;;;;;;45.08;27.98;;;;;;;4.83;66.96;95153.16;5030402;28;20275;-68
2021/11/01 04:05:31;;;;;;;42.20;27.42;;;;;;;4.53;68.28;95136.63;5016767;28;20682;-71
2021/11/01 04:07:58;;;;;;;39.83;25.38;;;;;;;4.97;67.37;95151.22;5011409;28;20989;-69
2021/11/01 04:10:30;;;;;;;39.40;25.02;;;;;;;5.13;66.41;95148.88;5013414;28;20742;-65
2021/11/01 04:12:58;;;;;;;42.50;25.98;;;;;;;5.14;65.78;95134.88;5012601;28;20212;-70
2021/11/01 04:15:25;;;;;;;46.00;25.88;;;;;;;5.09;65.79;95141.75;5019060;28;20197;-72
2021/11/01 04:18:02;;;;;;;47.72;27.48;;;;;;;5.15;65.78;95139.06;5026574;28;20284;-67
2021/11/01 04:23:06;;;;;;;41.58;26.15;;;;;;;4.65;67.00;95136.75;5030457;28;20224;-72
2021/11/01 04:25:33;;;;;;;47.13;27.60;;;;;;;4.73;66.89;95142.47;5029906;28;20203;-71
2021/11/01 04:28:03;;;;;;;41.40;27.10;;;;;;;4.86;66.70;95133.75;5029412;28;20312;-68
2021/11/01 04:30:38;;;;;;;41.60;27.85;;;;;;;4.71;66.40;95139.28;5020850;28;20701;-69
2021/11/01 04:33:08;;;;;;;49.33;31.17;;;;;;;4.14;67.81;95136.94;5025054;28;20217;-70
2021/11/01 04:35:38;;;;;;;51.67;33.35;;;;;;;4.60;66.49;95134.00;5011065;28;20377;-69
2021/11/01 04:41:30;;;;;;;57.78;34.70;;;;;;;4.58;66.33;95123.81;5012414;28;20333;-71
2021/11/01 04:54:25;;;;;;;84.00;43.72;;;;;;;4.51;68.95;95133.47;5030094;28;20201;-71
2021/11/01 04:56:52;;;;;;;74.90;46.22;;;;;;;4.33;68.05;95137.78;5029148;28;20214;-69
2021/11/01 04:59:21;;;;;;;75.75;45.38;;;;;;;4.38;67.13;95125.78;5013385;28;21006;-69
2021/11/01 05:01:53;;;;;;;60.63;40.30;;;;;;;4.09;68.02;95139.34;5024358;28;20205;-72
2021/11/01 05:04:23;;;;;;;73.03;45.70;;;;;;;4.39;66.54;95124.78;5037249;28;20193;-71
2021/11/01 05:06:59;;;;;;;79.00;47.90;;;;;;;4.16;67.31;95129.72;5037852;28;20229;-66
2021/11/01 05:10:14;;;;;;;84.88;52.50;;;;;;;3.80;68.33;95114.00;5025866;28;20189;-73
2021/11/01 05:12:59;;;;;;;89.05;53.95;;;;;;;3.76;69.08;95138.75;5033905;28;20224;-71
2021/11/01 05:15:24;;;;;;;95.40;52.92;;;;;;;3.99;68.83;95133.84;5033084;28;20698;-65
2021/11/01 05:18:14;;;;;;;96.47;54.88;;;;;;;4.02;68.35;95134.22;5033054;28;20300;-68
2021/11/01 05:20:53;;;;;;;97.25;56.50;;;;;;;4.17;67.45;95133.91;5033359;28;20229;-68
2021/11/01 05:25:55;;;;;;;100.47;59.13;;;;;;;3.23;71.15;95139.97;5020159;28;20216;-69
2021/11/01 05:30:59;;;;;;;106.15;58.35;;;;;;;3.43;70.85;95140.69;5032924;28;20197;-67
2021/11/01 05:36:06;;;;;;;93.35;51.28;;;;;;;3.67;69.78;95135.59;5031260;28;20211;-68
2021/11/01 05:38:34;;;;;;;96.72;53.45;;;;;;;4.04;69.50;95144.38;5017343;28;20185;-74
2021/11/01 05:41:03;;;;;;;115.20;66.65;;;;;;;3.90;69.01;95145.47;5032861;28;20259;-74
2021/11/01 05:43:30;;;;;;;105.15;61.47;;;;;;;4.18;68.74;95143.28;5031710;28;20195;-69
2021/11/01 05:45:58;;;;;;;90.57;52.65;;;;;;;4.24;68.43;95147.63;5022515;28;20194;-70
2021/11/01 05:48:26;;;;;;;85.20;47.55;;;;;;;4.30;68.45;95157.19;5027822;28;20205;-66
2021/11/01 05:50:53;;;;;;;77.93;47.17;;;;;;;4.44;67.92;95152.66;5024176;28;20292;-70
2021/11/01 05:53:22;;;;;;;79.75;46.70;;;;;;;4.42;68.26;95155.47;5025713;28;20201;-67
2021/11/01 05:56:12;;;;;;;76.20;44.35;;;;;;;4.77;68.74;95154.00;5012828;28;20197;-67
2021/11/01 05:59:00;;;;;;;83.72;47.13;;;;;;;4.33;69.34;95154.16;5028077;28;20205;-69
2021/11/01 06:04:04;;;;;;;81.75;47.33;;;;;;;4.50;69.81;95150.03;5031158;28;20244;-69
2021/11/01 06:14:30;;;;;;;86.68;44.85;;;;;;;4.96;68.19;95158.22;5032309;28;20193;-65
2021/11/01 06:16:58;;;;;;;85.80;47.97;;;;;;;4.66;69.42;95157.28;5037291;28;20276;-67
2021/11/01 06:19:27;;;;;;;84.18;48.60;;;;;;;4.48;70.48;95165.03;5031693;28;20224;-71
2021/11/01 06:21:56;;;;;;;92.68;51.63;;;;;;;4.79;70.09;95162.38;5019273;28;20193;-68
2021/11/01 06:27:03;;;;;;;83.97;49.00;;;;;;;5.36;68.49;95152.63;5031180;28;20300;-69
2021/11/01 06:29:34;;;;;;;86.45;46.83;;;;;;;5.39;68.36;95152.19;5030809;28;20209;-69
2021/11/01 06:32:46;;;;;;;84.97;46.53;;;;;;;5.26;69.39;95149.72;5023532;28;20222;-69
2021/11/01 06:54:37;;;;;;;88.28;51.83;;;;;;;6.04;72.78;95143.59;5020189;28;20483;-70
2021/11/01 08:35:23;;;;;;;58.80;40.77;;;;;;;11.27;59.32;95076.13;5028903;28;20447;-68
2021/11/01 09:24:40;;;;;;;42.37;27.00;;;;;;;13.63;51.48;95026.31;5036720;28;20816;-73
2021/11/01 09:27:11;;;;;;;32.93;26.17;;;;;;;13.77;50.58;95017.56;5035768;28;20454;-71
2021/11/01 09:43:15;;;;;;;34.93;26.37;;;;;;;14.65;48.99;94989.25;5026968;28;20444;-70
2021/11/01 09:45:42;;;;;;;33.57;25.67;;;;;;;14.78;49.15;94985.97;5032646;28;20440;-73
2021/11/01 09:48:10;;;;;;;33.03;23.23;;;;;;;13.99;48.32;94988.19;5030946;28;20452;-70
2021/11/01 09:50:41;;;;;;;30.47;23.60;;;;;;;13.80;49.65;94974.06;5019134;28;20502;-68
2021/11/01 09:53:23;;;;;;;33.30;24.27;;;;;;;13.83;49.09;94979.56;5032273;28;20456;-70
2021/11/01 10:01:20;;;;;;;33.80;23.00;;;;;;;13.83;50.03;94973.53;5020997;28;20631;-71
2021/11/01 10:03:51;;;;;;;30.53;23.23;;;;;;;14.11;49.92;94970.97;5025530;28;20902;-70
2021/11/01 10:06:23;;;;;;;31.13;22.80;;;;;;;13.93;49.55;94968.19;5020323;28;20488;-70
2021/11/01 10:08:56;;;;;;;34.43;22.87;;;;;;;14.34;48.78;94953.69;5016070;28;20448;-67
2021/11/01 10:11:27;;;;;;;32.73;24.03;;;;;;;13.74;50.69;94964.66;5011456;28;20448;-70
2021/11/01 10:14:02;;;;;;;31.53;23.50;;;;;;;13.62;51.25;94961.53;5027292;28;20506;-69
2021/11/01 10:19:30;;;;;;;32.33;23.80;;;;;;;14.58;48.30;94949.22;5031169;28;20470;-69
2021/11/01 10:22:00;;;;;;;35.73;24.67;;;;;;;14.10;50.24;94950.16;5031093;28;20487;-69
2021/11/01 10:24:38;;;;;;;36.07;25.07;;;;;;;14.94;48.45;94941.75;5036190;28;20451;-72
2021/11/01 10:27:11;;;;;;;37.17;25.20;;;;;;;14.63;48.73;94930.75;5027479;28;20443;-68
2021/11/01 10:30:14;;;;;;;37.70;25.87;;;;;;;14.23;50.25;94931.09;5013993;28;20453;-69
2021/11/01 10:32:45;;;;;;;31.83;24.93;;;;;;;14.65;48.86;94933.88;5029263;28;20463;-68
2021/11/01 10:35:29;;;;;;;36.43;25.40;;;;;;;14.76;48.80;94922.16;5030150;28;20451;-66
2021/11/01 10:38:02;;;;;;;32.60;24.83;;;;;;;14.11;49.47;94917.47;5016813;28;20444;-71
2021/11/01 10:40:32;;;;;;;35.63;25.80;;;;;;;13.71;49.50;94917.78;5031082;28;20491;-73
2021/11/01 10:43:21;;;;;;;33.07;25.17;;;;;;;13.99;49.63;94906.50;5017153;28;20445;-72
2021/11/01 10:57:17;;;;;;;32.27;23.40;;;;;;;14.86;47.63;94882.47;5030617;28;20436;-72
2021/11/01 11:13:36;;;;;;;35.27;26.00;;;;;;;14.95;50.02;94857.03;5022713;28;20439;-69
2021/11/01 11:16:06;;;;;;;36.20;24.97;;;;;;;14.83;48.70;94861.94;5030609;28;20432;-69
2021/11/01 11:49:01;;;;;;;29.93;23.80;;;;;;;16.74;45.48;94821.97;5030051;28;20887;-73
2021/11/01 11:51:28;;;;;;;29.63;22.43;;;;;;;17.41;43.91;94814.19;5017587;28;20448;-68
2021/11/01 11:54:01;;;;;;;37.40;22.60;;;;;;;18.33;42.32;94807.16;5029699;28;20497;-72
2021/11/01 11:56:39;;;;;;;30.30;23.27;;;;;;;18.23;41.75;94810.06;5017613;28;20444;-71
2021/11/01 11:59:10;;;;;;;28.43;21.17;;;;;;;17.76;42.26;94797.47;5016196;28;20956;-71
2021/11/01 12:01:41;;;;;;;29.67;21.83;;;;;;;18.15;40.67;94808.97;5016676;28;20561;-69
2021/11/01 12:04:32;;;;;;;26.87;21.63;;;;;;;18.25;41.63;94796.53;5029169;28;21656;-71
2021/11/01 12:07:03;;;;;;;34.73;22.03;;;;;;;18.80;40.27;94795.81;5028966;28;20835;-71
2021/11/01 12:17:35;;;;;;;29.50;21.47;;;;;;;19.83;38.24;94771.97;5023353;28;20212;-73
2021/11/01 12:20:09;;;;;;;28.90;22.77;;;;;;;21.21;36.20;94772.97;5016823;28;20193;-69
2021/11/01 12:22:40;;;;;;;26.70;20.73;;;;;;;21.47;35.65;94768.25;5015583;28;20201;-68
2021/11/01 12:25:12;;;;;;;22.53;20.07;;;;;;;21.29;35.04;94770.28;5016683;28;20201;-70
2021/11/01 12:27:48;;;;;;;25.00;21.47;;;;;;;21.91;33.63;94759.56;5029359;28;20204;-71
2021/11/01 12:30:18;;;;;;;26.37;21.13;;;;;;;21.17;34.62;94762.97;5027413;28;20201;-68
2021/11/01 12:32:47;;;;;;;26.10;21.30;;;;;;;21.59;34.76;94736.28;5022929;28;20299;-71
2021/11/01 12:35:22;;;;;;;26.20;20.83;;;;;;;21.10;33.56;94754.72;5029581;28;20272;-69
2021/11/01 12:38:01;;;;;;;27.43;20.23;;;;;;;21.46;34.42;94743.47;5028468;28;20196;-71
2021/11/01 12:40:51;;;;;;;25.60;19.70;;;;;;;22.22;34.01;94740.38;5029863;28;20304;-71
2021/11/01 12:49:00;;;;;;;26.83;19.93;;;;;;;22.33;31.40;94720.94;5028738;28;20229;-71
2021/11/01 12:57:16;;;;;;;28.03;20.53;;;;;;;23.79;31.62;94724.94;5037605;28;20201;-69
2021/11/01 12:59:48;;;;;;;27.97;20.67;;;;;;;24.43;30.37;94714.75;5009510;28;20670;-69
2021/11/01 13:02:41;;;;;;;24.10;20.50;;;;;;;24.43;30.35;94720.09;5026586;28;20323;-68
2021/11/01 13:05:23;;;;;;;28.13;21.13;;;;;;;23.87;31.42;94716.75;5029182;28;20198;-69
2021/11/01 13:08:03;;;;;;;25.70;20.37;;;;;;;24.73;29.89;94713.19;5016357;28;20319;-70
2021/11/01 13:19:14;;;;;;;28.63;22.00;;;;;;;23.51;29.60;94708.88;5029513;28;20193;-69
2021/11/01 13:24:14;;;;;;;24.13;20.70;;;;;;;24.20;29.67;94703.06;5033077;28;20588;-68
2021/11/01 13:29:21;;;;;;;25.27;20.03;;;;;;;23.63;29.87;94705.41;5022014;28;20329;-71
2021/11/01 13:40:03;;;;;;;23.40;19.57;;;;;;;23.23;30.12;94708.06;5018121;28;20210;-70
2021/11/01 13:42:35;;;;;;;25.27;19.43;;;;;;;21.79;31.01;94698.94;5022286;28;20650;-69
2021/11/01 13:45:12;;;;;;;22.87;18.07;;;;;;;23.27;30.21;94700.13;5028675;28;20197;-71
2021/11/01 13:47:59;;;;;;;23.27;18.67;;;;;;;22.12;31.96;94691.69;5031777;28;20197;-69
2021/11/01 13:50:39;;;;;;;27.87;19.27;;;;;;;22.56;31.06;94682.03;5027929;28;20288;-68
2021/11/01 13:53:15;;;;;;;25.77;20.50;;;;;;;22.92;31.07;94686.53;5024203;28;20208;-70
2021/11/01 13:55:51;;;;;;;25.77;20.07;;;;;;;22.98;31.33;94677.97;5032190;28;20295;-70
2021/11/01 15:12:18;;;;;;;50.90;34.67;;;;;;;16.34;40.92;94685.19;5021169;28;21016;-70
2021/11/01 15:14:28;;;;;;;36.00;21.40;;;;;;;16.04;41.82;94680.50;5029173;28;20961;-70
2021/11/01 15:19:46;;;;;;;35.87;23.27;;;;;;;15.53;43.64;94687.81;5029713;28;20444;-69
2021/11/01 15:27:37;;;;;;;39.67;25.40;;;;;;;14.32;48.30;94681.69;5029618;28;20450;-70
2021/11/01 16:17:04;;;;;;;58.87;29.80;;;;;;;12.89;51.19;94702.78;5025321;28;20447;-68
2021/11/01 16:18:51;;;;;;;263.70;187.47;;;;;;;13.04;51.15;94694.84;5026913;28;20463;-67
2021/11/01 16:21:19;;;;;;;65.23;37.80;;;;;;;13.09;50.54;94695.59;5025483;28;20446;-69
2021/11/01 16:23:46;;;;;;;60.33;37.57;;;;;;;13.06;50.01;94705.88;5027390;28;20811;-68
2021/11/01 16:28:55;;;;;;;45.53;28.77;;;;;;;12.93;50.16;94707.25;5028105;28;20454;-67
2021/11/01 16:36:58;;;;;;;48.90;29.23;;;;;;;12.69;50.96;94695.84;5025279;28;20455;-66
2021/11/01 16:39:35;;;;;;;48.90;30.13;;;;;;;12.46;51.94;94707.03;5027144;28;20941;-67
2021/11/01 16:42:03;;;;;;;51.37;31.43;;;;;;;12.59;51.36;94695.13;5023682;28;20475;-66
2021/11/01 16:44:32;;;;;;;53.53;31.60;;;;;;;12.38;51.56;94710.19;5027347;28;20436;-66
2021/11/01 16:46:59;;;;;;;55.87;32.90;;;;;;;12.49;51.38;94711.72;5025533;28;20812;-69
2021/11/01 16:49:31;;;;;;;55.30;32.43;;;;;;;12.43;52.14;94707.53;5027108;28;20971;-69
2021/11/01 16:52:16;;;;;;;47.17;30.07;;;;;;;12.47;51.26;94703.31;5024333;28;20446;-68
2021/11/01 16:54:49;;;;;;;60.73;32.07;;;;;;;12.42;51.77;94716.50;5025312;28;20898;-67
2021/11/01 16:57:40;;;;;;;48.87;30.63;;;;;;;12.19;52.85;94717.09;5026171;28;21075;-67
2021/11/01 18:41:13;;;;;;;56.30;34.27;;;;;;;10.40;58.58;94777.97;5032275;28;20443;-70
2021/11/01 18:52:03;;;;;;;56.57;33.37;;;;;;;10.12;58.68;94781.00;5015676;28;20458;-69
2021/11/01 18:54:44;;;;;;;52.57;32.67;;;;;;;10.33;58.69;94789.75;5020951;28;20449;-73
2021/11/01 18:57:12;;;;;;;51.97;33.63;;;;;;;10.42;57.55;94770.66;5029830;28;20910;-72
2021/11/01 18:59:41;;;;;;;74.83;47.60;;;;;;;10.42;58.01;94791.59;5020660;28;20504;-72
2021/11/01 19:05:14;;;;;;;61.17;37.23;;;;;;;10.24;57.98;94783.44;5020822;28;20448;-71
2021/11/01 19:07:56;;;;;;;56.77;34.93;;;;;;;10.19;58.67;94787.59;5014443;28;20480;-73
2021/11/01 20:06:54;;;;;;;69.33;37.43;;;;;;;8.13;62.31;94824.13;5026931;28;20482;-69
2021/11/01 20:15:17;;;;;;;70.00;37.33;;;;;;;8.61;60.08;94805.91;5027944;28;20447;-69
2021/11/01 21:27:31;;;;;;;67.17;38.70;;;;;;;7.18;65.27;94780.00;5016030;28;20443;-66
2021/11/01 21:29:58;;;;;;;75.20;37.37;;;;;;;7.18;65.32;94777.38;5014794;28;20455;-68
2021/11/01 21:32:25;;;;;;;69.33;40.10;;;;;;;7.34;65.31;94761.97;5018375;28;20439;-67
2021/11/01 21:37:22;;;;;;;61.10;39.67;;;;;;;7.31;65.21;94757.25;5027782;28;20451;-68
2021/11/01 21:39:50;;;;;;;73.10;39.57;;;;;;;7.22;65.15;94755.03;5027611;28;20444;-66
2021/11/01 21:42:17;;;;;;;69.43;41.40;;;;;;;6.50;68.23;94755.09;5027851;28;20435;-66
2021/11/01 21:44:45;;;;;;;67.40;39.97;;;;;;;6.98;66.35;94753.63;5029847;28;20518;-68
2021/11/01 21:47:12;;;;;;;70.97;40.47;;;;;;;7.13;66.22;94751.22;5031365;28;20535;-65
2021/11/01 21:49:40;;;;;;;70.03;41.67;;;;;;;7.17;65.53;94741.94;5019331;28;20451;-67
2021/11/01 21:52:09;;;;;;;71.37;40.93;;;;;;;7.24;65.58;94746.19;5014012;28;20448;-66
2021/11/01 21:54:51;;;;;;;73.27;40.47;;;;;;;6.90;66.03;94717.53;5020344;28;20462;-65
2021/11/01 21:57:42;;;;;;;70.17;39.90;;;;;;;7.19;64.48;94745.09;5021699;28;20444;-67
2021/11/01 22:01:06;;;;;;;74.27;40.93;;;;;;;7.22;64.40;94738.63;5031322;28;20435;-65
2021/11/01 22:24:16;;;;;;;64.03;40.77;;;;;;;7.17;63.67;94715.09;5026214;28;20483;-68
2021/11/01 22:40:27;;;;;;;69.77;40.83;;;;;;;6.43;67.17;94708.41;5028551;28;20447;-67
2021/11/01 22:45:37;;;;;;;71.30;40.70;;;;;;;6.55;66.77;94690.91;5015085;28;20444;-67
2021/11/01 22:56:33;;;;;;;68.63;38.78;;;;;;;6.07;67.94;94695.78;5030229;28;20229;-65
2021/11/01 22:59:02;;;;;;;65.53;38.55;;;;;;;6.22;67.03;94675.28;5019321;28;20201;-66
2021/11/01 23:01:37;;;;;;;71.85;39.50;;;;;;;6.60;66.35;94682.41;5028864;28;20189;-66
2021/11/01 23:04:33;;;;;;;70.37;39.93;;;;;;;6.63;65.45;94682.72;5010814;28;20220;-65
2021/11/01 23:31:32;;;;;;;67.47;38.23;;;;;;;5.63;69.69;94667.88;5016919;28;20483;-65
2021/11/01 23:34:02;;;;;;;69.53;39.50;;;;;;;5.86;69.33;94660.00;5020173;28;20545;-66
2021/11/01 23:36:29;;;;;;;69.27;39.03;;;;;;;5.74;68.96;94651.44;5018346;28;20444;-65
2021/11/01 23:38:56;;;;;;;71.30;40.60;;;;;;;5.82;69.63;94645.88;5015823;28;20552;-65
2021/11/01 23:41:23;;;;;;;57.87;37.40;;;;;;;5.95;68.52;94643.03;5028947;28;20435;-67
2021/11/01 23:43:50;;;;;;;66.47;38.70;;;;;;;5.96;67.99;94634.22;5016613;28;20475;-65
2021/11/01 23:46:18;;;;;;;65.30;39.40;;;;;;;6.03;67.48;94635.66;5021056;28;20462;-66
2021/11/01 23:48:45;;;;;;;61.03;37.00;;;;;;;6.16;67.29;94634.56;5017034;28;21208;-65
2021/11/01 23:51:16;;;;;;;63.38;38.00;;;;;;;6.36;66.49;94639.31;5017909;28;20451;-67
2021/11/01 23:56:12;;;;;;;67.83;38.07;;;;;;;5.80;68.79;94643.50;5029934;28;20452;-68
2021/11/01 23:58:41;;;;;;;66.03;38.70;;;;;;;5.73;68.61;94624.66;5023286;28;20541;-67
